Time;durP1;ratioP1;P1;durP2;ratioP2;P2;SDS_P1;SDS_P2;PMS_P1;PMS_P2;Temp;Humidity;BMP_temperature;BMP_pressure;BME280_temperature;BME280_humidity;BME280_pressure;Samples;Min_cycle;Max_cycle;Signal;HPM_P1;HPM_P2
2023/10/15 00:01:45;;;;;;;12.90;5.60;;;8.70;70.60;;;;;;5014109;28;20385;-76
2023/10/15 00:04:12;;;;;;;8.48;4.38;;;8.70;69.30;;;;;;5012403;28;20400;-77
2023/10/15 00:06:38;;;;;;;14.30;3.78;;;8.60;70.40;;;;;;5012651;28;20404;-76
2023/10/15 00:09:04;;;;;;;8.77;4.20;;;8.60;70.50;;;;;;5012175;28;20752;-76
2023/10/15 00:11:30;;;;;;;10.15;4.30;;;8.50;71.60;;;;;;5012025;28;20392;-77
2023/10/15 00:13:56;;;;;;;9.68;3.80;;;8.60;71.80;;;;;;5012135;28;20546;-76
2023/10/15 00:16:22;;;;;;;6.18;3.50;;;8.60;70.20;;;;;;5012282;28;20476;-76
2023/10/15 00:18:48;;;;;;;10.13;3.85;;;8.60;70.20;;;;;;5012247;28;20808;-78
2023/10/15 00:21:14;;;;;;;10.15;3.78;;;8.60;70.00;;;;;;5011997;28;20755;-76
2023/10/15 00:23:41;;;;;;;12.65;3.75;;;8.70;67.90;;;;;;5011935;28;20385;-77
2023/10/15 00:26:07;;;;;;;10.70;4.30;;;8.80;66.40;;;;;;5012222;28;20558;-77
2023/10/15 00:28:33;;;;;;;9.60;4.10;;;8.70;67.80;;;;;;4995332;28;20755;-77
2023/10/15 00:31:06;;;;;;;10.07;3.80;;;8.70;67.40;;;;;;5013487;28;20381;-76
2023/10/15 00:33:31;;;;;;;11.10;4.30;;;8.70;68.20;;;;;;5013468;28;20508;-77
2023/10/15 00:35:57;;;;;;;14.45;4.57;;;8.60;68.20;;;;;;5012729;28;20420;-77
2023/10/15 00:38:24;;;;;;;14.63;4.10;;;8.60;69.40;;;;;;5013446;28;20385;-76
2023/10/15 00:40:51;;;;;;;10.10;3.92;;;8.60;69.30;;;;;;5013796;28;20748;-78
2023/10/15 00:43:18;;;;;;;12.88;3.78;;;8.50;69.90;;;;;;5011373;28;20496;-75
2023/10/15 00:45:45;;;;;;;12.80;4.13;;;8.60;68.70;;;;;;5012060;28;20388;-76
2023/10/15 00:48:36;;;;;;;11.73;4.40;;;8.60;69.20;;;;;;5012486;28;20391;-76
2023/10/15 00:51:10;;;;;;;11.47;3.90;;;8.50;69.80;;;;;;5011293;28;20399;-76
2023/10/15 00:53:51;;;;;;;11.95;3.35;;;8.50;71.90;;;;;;5011970;28;20930;-76
2023/10/15 00:56:20;;;;;;;10.27;3.40;;;8.60;70.70;;;;;;5012886;28;20389;-76
2023/10/15 01:01:34;;;;;;;12.80;4.20;;;8.50;71.60;;;;;;5011723;28;20393;-77
2023/10/15 01:04:00;;;;;;;12.30;3.78;;;8.40;71.70;;;;;;5012344;28;20400;-77
2023/10/15 01:08:58;;;;;;;16.88;4.43;;;8.30;74.50;;;;;;5012140;28;20436;-76
2023/10/15 01:11:28;;;;;;;10.38;4.00;;;8.30;73.90;;;;;;5011251;28;20539;-76
2023/10/15 01:13:54;;;;;;;10.52;3.90;;;8.30;73.90;;;;;;5010815;28;20517;-75
2023/10/15 01:16:21;;;;;;;10.18;3.80;;;8.30;73.60;;;;;;5010980;28;20403;-76
2023/10/15 01:19:07;;;;;;;12.82;4.30;;;8.30;74.70;;;;;;5011531;28;21006;-75
2023/10/15 01:21:38;;;;;;;18.13;4.30;;;8.30;74.60;;;;;;5015502;28;20396;-76
2023/10/15 01:24:04;;;;;;;9.23;3.95;;;8.40;72.90;;;;;;5014563;28;20471;-74
2023/10/15 01:26:34;;;;;;;12.55;4.03;;;8.40;72.60;;;;;;5015086;28;20392;-76
2023/10/15 01:29:01;;;;;;;12.48;4.10;;;8.40;72.90;;;;;;4997873;28;20422;-76
2023/10/15 01:31:27;;;;;;;11.80;4.30;;;8.40;73.00;;;;;;5016806;28;20403;-75
2023/10/15 01:33:53;;;;;;;13.70;3.90;;;8.40;73.50;;;;;;5015873;28;20409;-75
2023/10/15 01:36:21;;;;;;;10.60;4.05;;;8.40;72.70;;;;;;5017556;28;20473;-77
2023/10/15 01:38:55;;;;;;;10.98;4.10;;;8.40;71.60;;;;;;5014962;28;20412;-75
2023/10/15 01:41:22;;;;;;;14.00;4.30;;;8.50;71.40;;;;;;5015132;28;20421;-78
2023/10/15 01:43:49;;;;;;;13.38;4.20;;;8.50;71.70;;;;;;5014997;28;20388;-78
2023/10/15 01:46:39;;;;;;;11.45;3.92;;;8.50;71.60;;;;;;5015033;28;20392;-76
2023/10/15 01:49:06;;;;;;;14.13;4.20;;;8.40;73.50;;;;;;5015459;28;20401;-77
2023/10/15 01:51:39;;;;;;;13.73;4.18;;;8.40;73.30;;;;;;4997903;28;20401;-76
2023/10/15 01:54:09;;;;;;;12.90;4.20;;;8.40;73.50;;;;;;5015025;28;20903;-77
2023/10/15 01:56:36;;;;;;;12.80;4.25;;;8.60;72.20;;;;;;5015265;28;20380;-76
2023/10/15 01:59:08;;;;;;;8.93;4.23;;;8.60;71.40;;;;;;5014228;28;20412;-75
2023/10/15 02:01:37;;;;;;;13.15;5.20;;;8.80;67.70;;;;;;5014284;28;20396;-76
2023/10/15 02:04:03;;;;;;;14.95;4.25;;;8.80;67.70;;;;;;5013974;28;20411;-75
2023/10/15 02:06:35;;;;;;;13.35;4.50;;;8.80;67.80;;;;;;4996485;28;20396;-76
2023/10/15 02:09:07;;;;;;;11.52;4.20;;;9.00;66.00;;;;;;5014806;28;20392;-77
2023/10/15 02:11:42;;;;;;;14.63;4.50;;;9.00;65.30;;;;;;5016588;28;20393;-76
2023/10/15 02:14:09;;;;;;;14.05;4.70;;;9.20;64.60;;;;;;5014934;28;20443;-76
2023/10/15 02:16:37;;;;;;;14.50;5.83;;;9.30;59.80;;;;;;5014139;28;20408;-75
2023/10/15 02:19:07;;;;;;;14.23;5.07;;;9.20;61.30;;;;;;4996332;28;20860;-76
2023/10/15 02:21:34;;;;;;;12.07;5.50;;;9.10;63.20;;;;;;5013984;28;20484;-76
2023/10/15 02:24:09;;;;;;;10.77;5.50;;;8.90;64.80;;;;;;5014038;28;20449;-75
2023/10/15 02:26:35;;;;;;;15.32;5.80;;;8.70;67.30;;;;;;5013526;28;20389;-75
2023/10/15 02:31:46;;;;;;;7.53;4.90;;;8.80;68.30;;;;;;5013337;28;20387;-77
2023/10/15 02:34:14;;;;;;;12.88;5.15;;;8.90;67.60;;;;;;5014390;28;20415;-73
2023/10/15 02:36:41;;;;;;;14.87;5.47;;;9.10;64.30;;;;;;5024172;28;20552;-75
2023/10/15 02:39:07;;;;;;;10.88;5.30;;;9.20;61.80;;;;;;5018898;28;20432;-75
2023/10/15 02:41:40;;;;;;;12.45;5.13;;;9.20;61.60;;;;;;5013428;28;20958;-75
2023/10/15 02:44:12;;;;;;;9.98;5.20;;;9.30;60.30;;;;;;5013129;28;20491;-75
2023/10/15 02:46:43;;;;;;;15.15;6.28;;;9.20;61.80;;;;;;5013445;28;20403;-75
2023/10/15 02:49:15;;;;;;;11.83;5.70;;;9.20;63.50;;;;;;5013386;28;20462;-76
2023/10/15 02:51:41;;;;;;;10.23;5.53;;;9.10;63.40;;;;;;4999864;28;20422;-75
2023/10/15 02:54:27;;;;;;;12.35;5.30;;;9.10;64.90;;;;;;5013105;28;20551;-76
2023/10/15 02:56:56;;;;;;;9.45;5.00;;;9.40;61.80;;;;;;5013285;28;20388;-75
2023/10/15 02:59:23;;;;;;;11.80;4.88;;;9.30;64.80;;;;;;5013082;28;20383;-75
2023/10/15 03:01:54;;;;;;;12.98;5.10;;;9.40;63.50;;;;;;4995051;28;20410;-76
2023/10/15 03:04:32;;;;;;;14.52;5.65;;;9.30;64.00;;;;;;5012845;28;20396;-75
2023/10/15 03:07:16;;;;;;;13.75;5.00;;;9.20;64.90;;;;;;5013224;28;20392;-76
2023/10/15 03:09:43;;;;;;;9.32;4.68;;;9.20;64.60;;;;;;5012796;28;20897;-76
2023/10/15 03:12:09;;;;;;;11.10;4.55;;;9.10;66.10;;;;;;5012881;28;20393;-76
2023/10/15 03:14:35;;;;;;;12.40;4.77;;;9.30;65.10;;;;;;5012303;28;20467;-76
2023/10/15 03:17:01;;;;;;;13.23;5.07;;;9.20;64.00;;;;;;5031411;23;20436;-73
2023/10/15 03:19:26;;;;;;;8.20;4.70;;;9.20;64.10;;;;;;5018916;28;20416;-73
2023/10/15 03:21:58;;;;;;;11.63;5.28;;;9.10;66.50;;;;;;5017880;28;20396;-73
2023/10/15 03:24:23;;;;;;;15.20;5.13;;;9.20;66.40;;;;;;5032683;28;20672;-73
2023/10/15 03:26:49;;;;;;;12.47;4.70;;;9.20;66.00;;;;;;5018412;28;20416;-72
2023/10/15 03:29:14;;;;;;;12.47;4.90;;;9.20;66.20;;;;;;5018336;28;20431;-74
2023/10/15 03:31:48;;;;;;;10.77;4.87;;;9.20;67.70;;;;;;5018542;28;20397;-73
2023/10/15 03:34:17;;;;;;;12.82;4.80;;;9.40;64.50;;;;;;5016169;28;20763;-73
2023/10/15 03:36:57;;;;;;;7.95;4.18;;;9.30;64.00;;;;;;5000835;28;20396;-73
2023/10/15 03:42:17;;;;;;;9.57;4.63;;;9.40;65.00;;;;;;5018782;28;20384;-72
2023/10/15 03:44:45;;;;;;;13.25;5.63;;;9.30;64.60;;;;;;5015104;28;20476;-72
2023/10/15 03:47:12;;;;;;;13.70;4.93;;;9.20;64.80;;;;;;5016299;28;20741;-73
2023/10/15 03:49:38;;;;;;;10.18;5.20;;;9.20;65.30;;;;;;5016010;28;20397;-73
2023/10/15 03:52:08;;;;;;;13.18;5.40;;;9.10;67.20;;;;;;5015636;28;20901;-74
2023/10/15 03:54:37;;;;;;;17.73;6.00;;;9.00;69.40;;;;;;5015044;28;20408;-74
2023/10/15 03:57:03;;;;;;;14.40;5.80;;;9.00;69.30;;;;;;4998156;28;20392;-73
2023/10/15 03:59:28;;;;;;;15.07;5.90;;;9.00;70.60;;;;;;5002093;28;20409;-73
2023/10/15 04:01:56;;;;;;;14.50;5.20;;;9.00;69.20;;;;;;5019380;28;20392;-74
2023/10/15 04:04:22;;;;;;;13.60;5.43;;;9.00;70.70;;;;;;4999658;28;20393;-74
2023/10/15 04:06:52;;;;;;;12.25;5.63;;;8.90;73.70;;;;;;4999765;28;20514;-73
2023/10/15 04:09:23;;;;;;;10.80;6.38;;;8.90;73.40;;;;;;5015060;28;20799;-74
2023/10/15 04:11:49;;;;;;;10.98;6.32;;;8.90;75.20;;;;;;4998662;28;20412;-73
2023/10/15 04:14:22;;;;;;;14.88;6.50;;;8.90;74.60;;;;;;5018512;28;20408;-74
2023/10/15 04:16:50;;;;;;;14.93;6.23;;;8.80;74.60;;;;;;4999883;28;20490;-73
2023/10/15 04:19:19;;;;;;;15.50;6.60;;;9.20;72.00;;;;;;5014377;28;20938;-73
2023/10/15 04:21:45;;;;;;;14.00;6.38;;;9.20;71.20;;;;;;5013605;28;20396;-72
2023/10/15 04:24:14;;;;;;;13.17;6.57;;;9.30;72.60;;;;;;5013962;28;20750;-72
2023/10/15 04:26:42;;;;;;;19.70;6.90;;;9.60;62.90;;;;;;4996155;28;20479;-72
2023/10/15 04:29:18;;;;;;;13.75;6.10;;;9.70;61.00;;;;;;5013827;28;20389;-74
2023/10/15 04:31:45;;;;;;;9.90;5.90;;;9.60;61.80;;;;;;5013710;28;20767;-73
2023/10/15 04:34:16;;;;;;;11.45;6.40;;;9.50;64.20;;;;;;5013446;28;20405;-74
2023/10/15 04:36:43;;;;;;;15.18;8.27;;;9.40;66.30;;;;;;4997280;28;20434;-72
2023/10/15 04:39:12;;;;;;;16.73;7.15;;;9.40;66.70;;;;;;4996334;28;20387;-73
2023/10/15 04:41:38;;;;;;;7.55;5.47;;;9.40;67.20;;;;;;5013345;28;20388;-74
2023/10/15 04:44:04;;;;;;;8.73;4.70;;;9.00;64.00;;;;;;5012866;28;20385;-73
2023/10/15 04:46:40;;;;;;;8.35;5.10;;;8.50;77.90;;;;;;5013028;28;20392;-73
2023/10/15 04:49:07;;;;;;;8.85;5.53;;;8.20;83.90;;;;;;4995638;28;20446;-74
2023/10/15 04:51:42;;;;;;;9.70;5.72;;;8.10;87.80;;;;;;5012709;28;20894;-74
2023/10/15 04:54:10;;;;;;;9.53;6.40;;;8.00;88.40;;;;;;4994508;28;20657;-73
2023/10/15 04:56:36;;;;;;;8.23;7.00;;;8.10;89.80;;;;;;5012776;28;20479;-73
2023/10/15 04:59:02;;;;;;;7.75;5.22;;;8.00;92.00;;;;;;5012535;28;20393;-73
2023/10/15 05:01:30;;;;;;;7.60;5.13;;;8.00;91.10;;;;;;5012071;28;20395;-73
2023/10/15 05:03:55;;;;;;;5.68;4.70;;;8.10;91.10;;;;;;5012033;28;20407;-72
2023/10/15 05:06:22;;;;;;;5.50;3.90;;;8.20;87.50;;;;;;5012528;28;20389;-74
2023/10/15 05:08:48;;;;;;;4.67;3.50;;;8.20;81.50;;;;;;5012922;28;20609;-73
2023/10/15 05:11:14;;;;;;;6.25;3.75;;;8.20;78.50;;;;;;5013090;28;20463;-73
2023/10/15 05:13:42;;;;;;;5.32;3.47;;;8.20;81.00;;;;;;5012123;28;20408;-71
2023/10/15 05:16:08;;;;;;;7.85;3.80;;;8.10;79.60;;;;;;5012378;28;20392;-74
2023/10/15 05:18:34;;;;;;;4.95;3.50;;;8.10;84.70;;;;;;5012280;28;20388;-72
2023/10/15 05:21:03;;;;;;;4.93;2.93;;;8.10;83.80;;;;;;4994747;28;20385;-73
2023/10/15 05:23:28;;;;;;;5.82;2.83;;;8.10;78.70;;;;;;4978257;28;20755;-73
2023/10/15 05:25:54;;;;;;;5.68;3.33;;;8.10;77.20;;;;;;5012303;28;20381;-73
2023/10/15 05:28:20;;;;;;;3.47;2.55;;;8.10;82.40;;;;;;5013707;28;20381;-73
2023/10/15 05:30:45;;;;;;;4.70;3.30;;;8.10;78.40;;;;;;5012668;28;20389;-72
2023/10/15 05:33:12;;;;;;;2.90;2.30;;;8.10;80.50;;;;;;5012711;28;20380;-72
2023/10/15 05:35:37;;;;;;;4.20;2.55;;;8.10;80.20;;;;;;5012194;28;20408;-73
2023/10/15 05:38:08;;;;;;;4.50;2.30;;;8.10;80.60;;;;;;4994622;28;20916;-73
2023/10/15 05:40:34;;;;;;;5.25;3.17;;;8.30;75.10;;;;;;4994902;28;20441;-73
2023/10/15 05:42:59;;;;;;;3.90;2.55;;;8.30;76.90;;;;;;5012275;28;20392;-73
2023/10/15 05:45:25;;;;;;;3.30;2.40;;;8.20;79.70;;;;;;5011937;28;20396;-73
2023/10/15 05:47:51;;;;;;;3.00;2.00;;;8.20;79.40;;;;;;5013925;28;20730;-72
2023/10/15 05:50:16;;;;;;;4.17;2.30;;;8.20;77.30;;;;;;5014599;28;20814;-73
2023/10/15 05:52:42;;;;;;;3.42;2.20;;;8.30;73.20;;;;;;4996900;28;20393;-73
2023/10/15 05:55:11;;;;;;;2.35;2.13;;;8.40;72.60;;;;;;5012532;28;20409;-72
2023/10/15 05:57:39;;;;;;;2.50;1.92;;;8.40;73.10;;;;;;5011596;28;20381;-73
2023/10/15 06:00:18;;;;;;;4.50;2.00;;;8.40;73.00;;;;;;5012352;28;20859;-73
2023/10/15 06:02:44;;;;;;;3.78;1.70;;;8.40;70.80;;;;;;5012882;28;20490;-73
2023/10/15 06:05:13;;;;;;;4.07;1.80;;;8.50;65.60;;;;;;5015221;28;20456;-73
2023/10/15 06:07:42;;;;;;;2.67;1.67;;;8.60;64.60;;;;;;4998326;28;20389;-73
2023/10/15 06:10:09;;;;;;;3.58;1.90;;;8.60;66.20;;;;;;5016383;28;20488;-73
2023/10/15 06:12:35;;;;;;;2.88;1.70;;;8.60;66.70;;;;;;5016261;28;20449;-73
2023/10/15 06:15:01;;;;;;;2.53;2.00;;;8.50;66.50;;;;;;4998002;28;20520;-72
2023/10/15 06:17:26;;;;;;;4.23;2.00;;;8.60;65.50;;;;;;4998782;28;20873;-73
2023/10/15 06:19:52;;;;;;;5.57;2.93;;;8.60;66.90;;;;;;5017200;28;20503;-74
2023/10/15 06:22:17;;;;;;;7.13;2.80;;;8.50;66.00;;;;;;4998537;28;20426;-74
2023/10/15 06:24:46;;;;;;;3.00;2.43;;;8.50;67.90;;;;;;5016464;28;20746;-74
2023/10/15 06:27:13;;;;;;;3.58;3.03;;;8.50;68.30;;;;;;5014761;28;20475;-72
2023/10/15 06:29:39;;;;;;;4.68;2.80;;;8.50;69.10;;;;;;5016371;28;20393;-74
2023/10/15 06:32:04;;;;;;;5.50;3.80;;;8.50;67.70;;;;;;5015168;28;20807;-74
2023/10/15 06:34:30;;;;;;;5.90;3.50;;;8.50;68.80;;;;;;4997340;28;20709;-73
2023/10/15 06:36:56;;;;;;;5.90;3.50;;;8.50;69.50;;;;;;4997528;28;20397;-72
2023/10/15 06:39:22;;;;;;;4.10;3.33;;;8.50;71.00;;;;;;5014886;28;20867;-71
2023/10/15 06:41:47;;;;;;;4.23;3.27;;;8.60;68.90;;;;;;5001274;28;20887;-73
2023/10/15 06:44:14;;;;;;;4.53;3.20;;;8.70;69.10;;;;;;5002925;28;20420;-73
2023/10/15 06:46:39;;;;;;;8.93;3.83;;;8.70;70.40;;;;;;5017650;28;20783;-74
2023/10/15 06:49:07;;;;;;;5.90;3.33;;;8.80;68.00;;;;;;5015965;28;20397;-74
2023/10/15 06:51:33;;;;;;;4.15;2.70;;;8.80;66.50;;;;;;4998104;28;20767;-74
2023/10/15 06:53:59;;;;;;;2.80;1.97;;;8.90;62.10;;;;;;4998216;28;20464;-73
2023/10/15 06:56:25;;;;;;;4.38;2.30;;;8.90;62.10;;;;;;4998114;28;20409;-74
2023/10/15 06:58:51;;;;;;;7.60;2.80;;;9.00;59.70;;;;;;4998919;28;20381;-72
2023/10/15 07:01:16;;;;;;;6.22;4.57;;;9.00;56.40;;;;;;5015235;28;20389;-72
2023/10/15 07:03:42;;;;;;;3.95;2.85;;;9.10;57.60;;;;;;4998017;28;20388;-73
2023/10/15 07:06:08;;;;;;;4.63;2.08;;;9.10;57.30;;;;;;5015120;28;20465;-73
2023/10/15 07:08:34;;;;;;;2.90;1.90;;;9.00;57.70;;;;;;5015027;28;20424;-72
2023/10/15 07:11:00;;;;;;;4.93;1.80;;;9.00;58.30;;;;;;4981135;28;20393;-73
2023/10/15 07:13:26;;;;;;;2.38;1.73;;;9.10;57.20;;;;;;5015332;28;20420;-72
2023/10/15 07:15:52;;;;;;;5.40;1.85;;;9.10;58.10;;;;;;5014850;28;20407;-73
2023/10/15 07:18:18;;;;;;;3.28;1.70;;;9.20;57.70;;;;;;5017510;28;20825;-74
2023/10/15 07:20:43;;;;;;;2.70;1.60;;;9.30;58.00;;;;;;5020228;28;20728;-73
2023/10/15 07:23:09;;;;;;;2.93;1.40;;;9.50;55.20;;;;;;5014142;28;20389;-73
2023/10/15 07:25:35;;;;;;;3.30;1.50;;;9.80;54.40;;;;;;4998304;28;20891;-74
2023/10/15 07:28:02;;;;;;;2.83;1.38;;;9.90;51.30;;;;;;4996491;28;20422;-72
2023/10/15 07:30:30;;;;;;;1.52;1.20;;;9.90;51.20;;;;;;4996016;28;20404;-73
2023/10/15 07:32:59;;;;;;;1.85;1.20;;;10.10;51.70;;;;;;5005612;28;20396;-73
2023/10/15 07:35:26;;;;;;;6.50;1.10;;;10.00;51.00;;;;;;5013566;28;20415;-73
2023/10/15 07:37:52;;;;;;;3.30;1.20;;;9.90;50.80;;;;;;5014364;28;20391;-72
2023/10/15 07:40:22;;;;;;;1.50;1.30;;;9.80;52.70;;;;;;4995911;28;20393;-74
2023/10/15 07:42:53;;;;;;;3.15;1.20;;;9.70;51.10;;;;;;5013231;28;20400;-73
2023/10/15 07:45:20;;;;;;;1.65;1.35;;;9.80;51.30;;;;;;5015221;28;20389;-73
2023/10/15 07:47:46;;;;;;;1.92;1.10;;;9.70;50.70;;;;;;5015853;28;20420;-74
2023/10/15 07:50:13;;;;;;;2.03;1.30;;;9.70;51.00;;;;;;5014957;28;20427;-72
2023/10/15 07:52:40;;;;;;;1.88;1.20;;;9.70;51.30;;;;;;5014216;28;20416;-73
2023/10/15 07:55:07;;;;;;;1.80;1.40;;;9.60;50.50;;;;;;4996416;28;20420;-73
2023/10/15 07:57:32;;;;;;;4.15;1.40;;;9.60;52.70;;;;;;5014683;28;20598;-73
2023/10/15 07:59:58;;;;;;;4.20;1.70;;;9.70;51.00;;;;;;5014085;28;20403;-73
2023/10/15 08:02:26;;;;;;;2.70;1.40;;;9.80;50.50;;;;;;5012826;28;20918;-73
2023/10/15 08:04:56;;;;;;;2.45;1.20;;;9.80;50.50;;;;;;5013012;28;20667;-74
2023/10/15 08:07:22;;;;;;;4.80;1.50;;;10.00;48.70;;;;;;5013434;28;20400;-73
2023/10/15 08:09:50;;;;;;;3.15;1.50;;;10.10;48.90;;;;;;5012272;28;20415;-73
2023/10/15 08:12:16;;;;;;;2.25;1.50;;;10.40;48.10;;;;;;5011766;28;20433;-73
2023/10/15 08:14:42;;;;;;;2.53;1.30;;;10.40;46.70;;;;;;5011675;28;20419;-73
2023/10/15 08:17:07;;;;;;;2.65;1.35;;;10.30;46.40;;;;;;5010909;28;20499;-72
2023/10/15 08:19:33;;;;;;;4.60;1.50;;;10.20;45.80;;;;;;5011920;28;20865;-73
2023/10/15 08:21:59;;;;;;;5.05;1.83;;;10.20;46.90;;;;;;5009423;28;20401;-73
2023/10/15 08:24:25;;;;;;;3.37;1.57;;;10.10;47.90;;;;;;5016686;28;20455;-74
2023/10/15 08:26:50;;;;;;;5.28;1.40;;;10.10;46.90;;;;;;5018678;28;20399;-73
2023/10/15 08:29:19;;;;;;;4.33;1.37;;;10.30;47.10;;;;;;4999948;28;20417;-73
2023/10/15 08:31:48;;;;;;;2.70;1.30;;;10.20;45.70;;;;;;5020279;28;20393;-73
2023/10/15 08:34:14;;;;;;;4.32;1.83;;;10.20;45.70;;;;;;5018818;28;20466;-73
2023/10/15 08:36:39;;;;;;;2.65;1.60;;;10.20;44.90;;;;;;5018556;28;20389;-73
2023/10/15 08:39:08;;;;;;;3.45;1.40;;;10.20;44.80;;;;;;5002173;28;20401;-73
2023/10/15 08:41:38;;;;;;;2.90;1.50;;;10.30;45.70;;;;;;5018426;28;20385;-73
2023/10/15 08:44:07;;;;;;;3.22;1.42;;;10.40;44.90;;;;;;5020345;28;20404;-74
2023/10/15 08:46:35;;;;;;;3.63;1.55;;;10.50;44.00;;;;;;5019630;28;20396;-74
2023/10/15 08:49:06;;;;;;;2.60;1.30;;;10.70;42.20;;;;;;5014933;28;21045;-73
2023/10/15 08:51:34;;;;;;;3.92;1.40;;;10.60;42.20;;;;;;5017713;28;20391;-73
2023/10/15 08:54:02;;;;;;;5.18;1.30;;;10.70;40.90;;;;;;5018716;28;20419;-74
2023/10/15 08:56:30;;;;;;;2.30;1.52;;;10.80;42.20;;;;;;5016028;28;20767;-72
2023/10/15 08:58:57;;;;;;;2.55;1.50;;;10.90;41.90;;;;;;5013486;28;20934;-75
2023/10/15 09:01:23;;;;;;;4.43;1.70;;;11.10;41.80;;;;;;5013368;28;20383;-76
2023/10/15 09:03:52;;;;;;;3.58;2.40;;;11.10;39.80;;;;;;5014824;28;20400;-75
2023/10/15 09:06:21;;;;;;;4.72;1.70;;;10.90;40.10;;;;;;4996366;28;20420;-72
2023/10/15 09:08:49;;;;;;;2.50;1.77;;;10.80;41.40;;;;;;4992313;28;20392;-73
2023/10/15 09:11:16;;;;;;;3.00;1.70;;;10.90;43.00;;;;;;5011156;28;20497;-73
2023/10/15 09:13:42;;;;;;;5.30;1.80;;;10.90;41.00;;;;;;4993083;28;20428;-72
2023/10/15 09:16:08;;;;;;;4.50;1.80;;;11.00;40.80;;;;;;5008142;23;20440;-75
2023/10/15 09:18:37;;;;;;;6.32;2.13;;;10.90;41.20;;;;;;5006392;28;20408;-76
2023/10/15 09:21:03;;;;;;;4.55;2.03;;;10.80;41.90;;;;;;5008631;28;20491;-76
2023/10/15 09:23:37;;;;;;;4.55;2.00;;;10.70;42.20;;;;;;5008366;28;20708;-75
2023/10/15 09:26:06;;;;;;;3.70;2.10;;;10.90;42.20;;;;;;5007630;28;20812;-74
2023/10/15 09:28:32;;;;;;;5.20;2.00;;;11.20;41.20;;;;;;5009137;28;20886;-76
2023/10/15 09:31:05;;;;;;;1.63;1.50;;;11.20;39.20;;;;;;5009179;28;20384;-77
2023/10/15 09:33:32;;;;;;;5.25;2.15;;;11.00;39.80;;;;;;5009673;28;20388;-77
2023/10/15 09:35:58;;;;;;;5.07;2.10;;;10.90;40.90;;;;;;5008940;28;20487;-76
2023/10/15 09:38:25;;;;;;;6.25;1.90;;;11.00;40.80;;;;;;5008375;28;20397;-76
2023/10/15 09:40:55;;;;;;;6.80;2.10;;;11.20;40.00;;;;;;5006502;28;20400;-76
2023/10/15 09:43:37;;;;;;;4.40;2.00;;;11.30;38.50;;;;;;5011464;28;20759;-76
2023/10/15 09:46:03;;;;;;;3.13;2.00;;;11.20;39.60;;;;;;4993135;28;20461;-75
2023/10/15 09:48:29;;;;;;;2.58;1.70;;;11.10;38.60;;;;;;5008346;28;20405;-75
2023/10/15 09:50:59;;;;;;;2.65;1.73;;;11.20;37.90;;;;;;4996621;28;20775;-75
2023/10/15 09:53:33;;;;;;;3.38;2.00;;;11.30;39.30;;;;;;4994840;28;20834;-77
2023/10/15 09:56:07;;;;;;;4.22;2.30;;;11.30;39.20;;;;;;5010067;28;20446;-75
2023/10/15 09:58:34;;;;;;;4.32;2.97;;;10.90;38.20;;;;;;5014664;28;20732;-75
2023/10/15 10:01:09;;;;;;;7.13;3.90;;;10.70;39.50;;;;;;5014717;28;20725;-75
2023/10/15 10:03:49;;;;;;;8.40;4.50;;;10.40;41.60;;;;;;5014154;28;20396;-74
2023/10/15 10:06:49;;;;;;;11.95;5.07;;;10.50;44.20;;;;;;5014469;28;20396;-75
2023/10/15 10:09:39;;;;;;;5.78;2.08;;;10.40;43.10;;;;;;4975290;28;20391;-75
2023/10/15 10:12:26;;;;;;;5.82;1.95;;;10.10;45.00;;;;;;4975095;28;20396;-76
2023/10/15 10:15:14;;;;;;;5.20;1.60;;;10.10;48.20;;;;;;4979860;28;20408;-74
2023/10/15 10:17:41;;;;;;;4.20;1.70;;;10.10;47.20;;;;;;4977028;28;20491;-75
2023/10/15 10:20:11;;;;;;;1.93;1.30;;;10.20;44.40;;;;;;4975259;28;20396;-75
2023/10/15 10:22:38;;;;;;;4.63;1.90;;;10.40;42.60;;;;;;4975166;28;20780;-74
2023/10/15 10:25:05;;;;;;;3.00;1.70;;;10.50;42.70;;;;;;4975056;28;20401;-76
2023/10/15 10:27:41;;;;;;;5.53;1.95;;;10.70;43.20;;;;;;4974510;28;20427;-75
2023/10/15 10:30:27;;;;;;;5.10;2.00;;;11.10;40.80;;;;;;4974629;28;20692;-76
2023/10/15 10:32:55;;;;;;;4.05;1.90;;;11.10;40.20;;;;;;4974300;28;20424;-76
2023/10/15 10:35:23;;;;;;;4.10;1.80;;;11.30;41.10;;;;;;4974532;28;20416;-76
2023/10/15 10:38:10;;;;;;;4.40;1.70;;;11.80;39.10;;;;;;4974471;28;20471;-76
2023/10/15 10:40:52;;;;;;;4.90;2.03;;;12.10;37.20;;;;;;4993344;28;20481;-75
2023/10/15 10:43:20;;;;;;;5.38;1.80;;;12.00;37.00;;;;;;4994853;28;20881;-75
2023/10/15 10:46:00;;;;;;;5.03;1.90;;;12.00;36.80;;;;;;4994365;28;20394;-75
2023/10/15 10:48:28;;;;;;;3.42;1.77;;;11.90;37.80;;;;;;5002651;28;20401;-74
2023/10/15 10:51:19;;;;;;;3.70;1.60;;;11.70;37.00;;;;;;5015090;28;20443;-76
2023/10/15 10:53:56;;;;;;;2.92;1.33;;;11.60;35.80;;;;;;5015526;28;20389;-76
2023/10/15 10:56:45;;;;;;;3.30;1.40;;;11.50;36.50;;;;;;5009307;28;20903;-76
2023/10/15 10:59:12;;;;;;;3.17;1.30;;;11.60;35.60;;;;;;5003937;28;20814;-74
2023/10/15 11:01:42;;;;;;;2.50;1.40;;;11.70;34.90;;;;;;5014522;28;20420;-76
2023/10/15 11:04:09;;;;;;;3.03;1.20;;;11.70;33.30;;;;;;5012963;28;20798;-74
2023/10/15 11:06:36;;;;;;;6.07;1.40;;;11.80;34.30;;;;;;5012772;28;20404;-75
2023/10/15 11:09:20;;;;;;;4.30;1.17;;;11.90;33.00;;;;;;5012742;28;20400;-74
2023/10/15 11:11:55;;;;;;;5.35;1.30;;;12.20;31.40;;;;;;5012665;28;20393;-75
2023/10/15 11:14:26;;;;;;;3.90;1.20;;;11.90;31.00;;;;;;5012633;28;20895;-74
2023/10/15 11:16:55;;;;;;;3.77;1.17;;;11.60;32.10;;;;;;5012118;28;21134;-76
2023/10/15 11:19:28;;;;;;;7.65;1.35;;;11.50;32.30;;;;;;5012903;28;20384;-74
2023/10/15 11:21:54;;;;;;;5.50;1.60;;;11.40;33.10;;;;;;5013590;28;20418;-76
2023/10/15 11:24:24;;;;;;;4.32;1.40;;;11.40;32.60;;;;;;5012721;28;20397;-76
2023/10/15 11:26:54;;;;;;;7.45;1.50;;;11.30;33.50;;;;;;5013123;28;20542;-75
2023/10/15 11:29:22;;;;;;;2.47;1.20;;;11.30;33.80;;;;;;5013493;28;20884;-76
2023/10/15 11:31:49;;;;;;;3.90;1.30;;;11.30;33.60;;;;;;5013193;28;20474;-76
2023/10/15 11:34:20;;;;;;;3.33;1.33;;;11.40;34.50;;;;;;5014534;28;20752;-76
2023/10/15 11:36:49;;;;;;;2.60;1.10;;;11.50;33.30;;;;;;5014605;28;20665;-76
2023/10/15 11:39:19;;;;;;;3.70;1.10;;;11.70;33.20;;;;;;5014467;28;20388;-76
2023/10/15 11:41:49;;;;;;;5.10;1.20;;;11.90;32.00;;;;;;5016027;28;20471;-75
2023/10/15 11:44:25;;;;;;;3.40;1.30;;;11.70;33.10;;;;;;5026848;28;20393;-75
2023/10/15 11:46:51;;;;;;;3.80;1.40;;;11.70;32.60;;;;;;5032026;28;20393;-75
2023/10/15 11:49:22;;;;;;;4.70;1.10;;;11.90;32.90;;;;;;5027569;28;20392;-76
2023/10/15 11:51:48;;;;;;;2.60;1.30;;;11.80;32.60;;;;;;5023071;28;20377;-75
2023/10/15 11:54:15;;;;;;;5.20;1.90;;;11.70;33.50;;;;;;5024559;28;20471;-75
2023/10/15 11:56:46;;;;;;;4.93;1.52;;;12.10;33.20;;;;;;5018817;28;20564;-76
2023/10/15 11:59:12;;;;;;;5.38;1.60;;;12.70;31.60;;;;;;5013274;28;20451;-76
2023/10/15 12:01:37;;;;;;;7.37;1.70;;;12.80;30.10;;;;;;5011203;28;20422;-76
2023/10/15 12:04:06;;;;;;;4.70;1.40;;;13.20;30.20;;;;;;5011531;28;20392;-75
2023/10/15 12:06:33;;;;;;;4.78;1.40;;;13.20;29.60;;;;;;5010618;28;20914;-76
2023/10/15 12:08:58;;;;;;;6.40;1.48;;;13.10;29.60;;;;;;5011847;28;20587;-76
2023/10/15 12:11:25;;;;;;;4.75;1.30;;;12.90;29.40;;;;;;5011656;28;20464;-76
2023/10/15 12:13:51;;;;;;;9.00;1.80;;;12.90;29.80;;;;;;5010078;28;20440;-76
2023/10/15 12:16:17;;;;;;;8.60;1.50;;;12.80;30.20;;;;;;5011702;28;20404;-76
2023/10/15 12:18:43;;;;;;;5.47;1.50;;;12.60;30.10;;;;;;5011520;28;20385;-75
2023/10/15 12:21:09;;;;;;;6.03;1.60;;;12.40;30.10;;;;;;5011584;28;20415;-76
2023/10/15 12:23:34;;;;;;;6.80;1.80;;;12.40;30.60;;;;;;5011263;28;20385;-76
2023/10/15 12:26:00;;;;;;;3.93;1.43;;;12.70;31.80;;;;;;5012311;28;20817;-76
2023/10/15 12:28:27;;;;;;;4.50;1.70;;;12.60;30.50;;;;;;5011709;28;20389;-75
2023/10/15 12:30:54;;;;;;;3.45;1.60;;;12.60;30.60;;;;;;5011164;28;20768;-76
2023/10/15 12:33:19;;;;;;;5.32;1.40;;;12.50;31.20;;;;;;5011018;28;20381;-75
2023/10/15 12:35:47;;;;;;;3.93;1.40;;;12.50;29.10;;;;;;5011846;28;20410;-75
2023/10/15 12:38:16;;;;;;;4.35;1.30;;;12.40;28.90;;;;;;5012746;28;20385;-76
2023/10/15 12:40:45;;;;;;;5.65;1.40;;;12.60;27.70;;;;;;5010896;28;20462;-74
2023/10/15 12:43:15;;;;;;;5.05;1.30;;;12.50;28.60;;;;;;5011000;28;20392;-74
2023/10/15 12:45:44;;;;;;;2.47;1.30;;;12.60;27.50;;;;;;5009191;28;20389;-74
2023/10/15 12:48:10;;;;;;;5.13;1.30;;;12.70;27.80;;;;;;5010783;28;20827;-75
2023/10/15 12:50:36;;;;;;;6.70;1.30;;;12.70;28.40;;;;;;5010701;28;20484;-75
2023/10/15 12:53:02;;;;;;;5.78;1.45;;;12.70;29.00;;;;;;5010323;28;20892;-74
2023/10/15 12:55:28;;;;;;;3.37;1.20;;;12.50;29.00;;;;;;5010803;28;20532;-74
2023/10/15 12:57:53;;;;;;;2.73;1.03;;;12.20;27.70;;;;;;5011482;28;20393;-74
2023/10/15 13:00:26;;;;;;;2.80;0.90;;;12.10;29.10;;;;;;5010109;28;20389;-75
2023/10/15 13:02:53;;;;;;;3.38;1.10;;;12.30;29.10;;;;;;5010330;28;20794;-76
2023/10/15 13:05:24;;;;;;;5.00;1.10;;;12.50;27.50;;;;;;5013205;28;20761;-76
2023/10/15 13:07:51;;;;;;;4.13;1.10;;;13.00;27.20;;;;;;5010156;28;20404;-75
2023/10/15 13:10:17;;;;;;;5.10;1.70;;;13.40;24.30;;;;;;5010120;28;20384;-76